Time;durP1;ratioP1;P1;durP2;ratioP2;P2;SDS_P1;SDS_P2;PMS_P1;PMS_P2;Temp;Humidity;BMP_temperature;BMP_pressure;BME280_temperature;BME280_humidity;BME280_pressure;Samples;Min_cycle;Max_cycle;Signal;HPM_P1;HPM_P2
2022/08/12 00:44:41;;;;;;;8.40;2.30;;;23.80;54.40;;;;;;5053122;28;20041;-74
2022/08/12 00:47:10;;;;;;;4.88;1.90;;;23.80;54.50;;;;;;5050339;28;20029;-74
2022/08/12 00:49:38;;;;;;;4.93;2.08;;;23.70;54.60;;;;;;5048784;28;20009;-77
2022/08/12 00:52:08;;;;;;;2.15;1.95;;;23.70;54.70;;;;;;5053581;28;20027;-76
2022/08/12 00:54:56;;;;;;;2.25;2.05;;;23.70;54.90;;;;;;5052099;28;20096;-77
2022/08/12 00:57:24;;;;;;;2.70;2.47;;;23.60;55.70;;;;;;5048479;28;20040;-77
2022/08/12 00:59:57;;;;;;;5.88;2.35;;;23.60;55.30;;;;;;5049745;28;20528;-76
2022/08/12 01:02:31;;;;;;;3.60;2.17;;;23.60;55.50;;;;;;5052320;28;20482;-77
2022/08/12 01:13:15;;;;;;;5.57;2.22;;;23.30;56.20;;;;;;5051589;28;20075;-75
2022/08/12 01:15:44;;;;;;;6.00;2.70;;;23.30;56.40;;;;;;5053073;28;20021;-77
2022/08/12 01:18:16;;;;;;;3.20;2.45;;;23.30;56.70;;;;;;5052363;28;20025;-77
2022/08/12 01:20:55;;;;;;;6.53;2.75;;;23.20;56.90;;;;;;5052161;28;20044;-77
2022/08/12 01:23:58;;;;;;;6.28;2.42;;;23.20;57.20;;;;;;5052124;28;20501;-77
2022/08/12 01:26:24;;;;;;;8.02;2.25;;;23.00;57.60;;;;;;5051639;28;20047;-75
2022/08/12 01:28:58;;;;;;;4.13;2.15;;;22.90;57.60;;;;;;5050162;28;20060;-76
2022/08/12 01:31:28;;;;;;;2.67;2.47;;;22.90;57.80;;;;;;5049686;28;20469;-77
2022/08/12 01:34:18;;;;;;;8.73;1.73;;;22.90;57.90;;;;;;5046894;28;20067;-76
2022/08/12 01:36:55;;;;;;;5.95;2.47;;;22.80;58.00;;;;;;5049807;28;20021;-75
2022/08/12 01:39:29;;;;;;;3.90;2.38;;;22.80;58.20;;;;;;5047322;28;20029;-76
2022/08/12 01:42:05;;;;;;;3.45;2.10;;;22.70;58.30;;;;;;5045533;28;20026;-76
2022/08/12 01:44:32;;;;;;;3.60;3.30;;;22.70;58.20;;;;;;5050555;28;20025;-76
2022/08/12 01:47:10;;;;;;;4.57;2.20;;;22.70;58.60;;;;;;5046676;28;20032;-75
2022/08/12 01:49:42;;;;;;;3.20;2.20;;;22.70;58.50;;;;;;5045478;28;20072;-75
2022/08/12 01:52:23;;;;;;;5.33;2.30;;;22.60;58.70;;;;;;5045027;28;20013;-77
2022/08/12 01:54:52;;;;;;;6.28;2.67;;;22.60;59.00;;;;;;5047183;28;20343;-73
2022/08/12 01:57:38;;;;;;;5.60;2.38;;;22.50;59.10;;;;;;5046831;28;20021;-76
2022/08/12 02:00:16;;;;;;;2.53;2.25;;;22.50;59.50;;;;;;5044008;28;20155;-76
2022/08/12 02:03:10;;;;;;;2.45;2.25;;;22.50;59.40;;;;;;5047484;28;20342;-75
2022/08/12 02:11:33;;;;;;;3.85;2.95;;;22.40;60.30;;;;;;5051290;28;20556;-76
2022/08/12 02:14:30;;;;;;;5.38;3.90;;;22.40;60.20;;;;;;5048813;28;20029;-76
2022/08/12 02:16:58;;;;;;;8.60;3.47;;;22.40;60.20;;;;;;5051085;28;20035;-75
2022/08/12 02:20:01;;;;;;;7.60;4.15;;;22.40;59.90;;;;;;5053463;28;20079;-78
2022/08/12 02:22:33;;;;;;;5.13;2.92;;;22.40;60.60;;;;;;5059507;28;20017;-76
2022/08/12 02:25:30;;;;;;;3.28;2.70;;;22.40;61.10;;;;;;5052108;28;20064;-75
2022/08/12 02:27:56;;;;;;;3.80;2.75;;;22.20;61.30;;;;;;5067253;28;20421;-77
2022/08/12 02:30:30;;;;;;;6.78;2.65;;;22.20;61.80;;;;;;5053049;28;20120;-75
2022/08/12 02:32:58;;;;;;;8.15;3.38;;;22.20;61.50;;;;;;5053904;28;20121;-77
2022/08/12 02:35:27;;;;;;;7.05;3.28;;;22.10;62.00;;;;;;5052663;28;20025;-77
2022/08/12 02:37:58;;;;;;;8.68;3.30;;;22.10;62.30;;;;;;5051602;28;20020;-77
2022/08/12 02:40:26;;;;;;;3.97;3.13;;;22.10;62.10;;;;;;5058393;28;20029;-76
2022/08/12 02:43:13;;;;;;;9.32;3.00;;;22.10;62.10;;;;;;5062850;28;20080;-75
2022/08/12 02:45:46;;;;;;;9.50;3.88;;;22.10;63.00;;;;;;5055482;28;20482;-76
2022/08/12 02:48:20;;;;;;;4.90;2.78;;;22.00;63.50;;;;;;5051554;28;20025;-76
2022/08/12 02:50:51;;;;;;;5.47;3.17;;;21.90;63.40;;;;;;5049905;28;20021;-76
2022/08/12 02:53:18;;;;;;;5.57;2.67;;;21.90;63.50;;;;;;5066699;28;20397;-73
2022/08/12 02:55:46;;;;;;;4.25;2.90;;;21.90;64.20;;;;;;5050184;28;20075;-77
2022/08/12 02:58:13;;;;;;;4.75;3.10;;;21.70;65.00;;;;;;5049861;28;20449;-77
2022/08/12 03:00:40;;;;;;;3.60;2.85;;;21.60;65.30;;;;;;5048518;28;20029;-76
2022/08/12 03:03:08;;;;;;;4.80;2.65;;;21.60;65.90;;;;;;5051034;28;20482;-76
2022/08/12 03:05:40;;;;;;;3.10;2.85;;;21.60;66.10;;;;;;5047600;28;20021;-75
2022/08/12 03:08:10;;;;;;;11.48;3.15;;;21.50;66.50;;;;;;5049277;28;20033;-76
2022/08/12 03:10:40;;;;;;;6.47;3.72;;;21.40;67.30;;;;;;5046487;28;20086;-76
2022/08/12 03:13:10;;;;;;;7.75;4.18;;;21.30;67.30;;;;;;5049296;28;20017;-75
2022/08/12 03:15:36;;;;;;;11.23;3.85;;;21.30;67.40;;;;;;5049905;28;20033;-76
2022/08/12 03:18:14;;;;;;;5.38;3.20;;;21.20;68.10;;;;;;5050985;28;20039;-77
2022/08/12 03:20:42;;;;;;;10.82;3.47;;;21.20;68.80;;;;;;5050576;28;20037;-76
2022/08/12 03:23:13;;;;;;;8.63;3.42;;;21.10;69.30;;;;;;5063860;28;20029;-77
2022/08/12 03:25:42;;;;;;;8.55;3.67;;;20.90;70.00;;;;;;5049455;28;20040;-77
2022/08/12 03:28:48;;;;;;;10.63;3.90;;;20.80;71.20;;;;;;5049812;28;20100;-73
2022/08/12 03:31:02;;;;;;;6.28;4.03;;;20.80;71.90;;;;;;5048521;28;20092;-73
2022/08/12 03:33:30;;;;;;;4.18;3.78;;;20.70;72.30;;;;;;5040300;28;20127;-74
2022/08/12 03:36:00;;;;;;;4.03;3.67;;;20.70;72.30;;;;;;5050966;28;20099;-76
2022/08/12 03:38:28;;;;;;;8.32;3.90;;;20.70;72.20;;;;;;5050172;28;20020;-77
2022/08/12 04:00:39;;;;;;;9.80;4.03;;;20.30;78.20;;;;;;5048875;28;20038;-77
2022/08/12 04:03:51;;;;;;;5.53;3.97;;;20.30;78.50;;;;;;5047772;28;20026;-75
2022/08/12 04:05:54;;;;;;;8.70;4.20;;;20.30;80.10;;;;;;5049754;28;20064;-76
2022/08/12 04:08:24;;;;;;;7.82;3.58;;;20.30;79.90;;;;;;5048363;28;20170;-77
2022/08/12 04:13:39;;;;;;;6.20;3.83;;;20.40;79.70;;;;;;5049696;28;20039;-75
2022/08/12 04:16:09;;;;;;;7.45;4.47;;;20.40;80.80;;;;;;5045269;28;20021;-76
2022/08/12 04:18:37;;;;;;;6.68;4.22;;;20.30;80.90;;;;;;5050792;28;20036;-76
2022/08/12 04:21:09;;;;;;;5.53;4.30;;;20.20;82.80;;;;;;5047908;28;20026;-76
2022/08/12 04:23:39;;;;;;;7.30;4.35;;;20.20;83.50;;;;;;5050163;28;20033;-77
2022/08/12 04:26:05;;;;;;;4.90;4.18;;;20.10;85.10;;;;;;5049195;28;20119;-76
2022/08/12 04:28:31;;;;;;;6.78;4.05;;;20.00;86.50;;;;;;5049343;28;20112;-76
2022/08/12 04:30:57;;;;;;;10.80;3.90;;;20.00;86.20;;;;;;5047602;28;20025;-75
2022/08/12 04:33:24;;;;;;;11.20;4.10;;;20.00;86.10;;;;;;5050608;28;20025;-76
2022/08/12 04:35:49;;;;;;;6.97;4.15;;;20.10;86.50;;;;;;5046755;28;20064;-76
2022/08/12 04:38:17;;;;;;;9.00;3.83;;;20.10;86.30;;;;;;5048590;28;20056;-76
2022/08/12 04:40:45;;;;;;;4.45;3.78;;;20.10;86.90;;;;;;5049664;28;20100;-76
2022/08/12 04:43:12;;;;;;;5.63;4.05;;;20.10;87.80;;;;;;5046395;28;20129;-77
2022/08/12 04:45:38;;;;;;;6.35;4.13;;;20.00;88.60;;;;;;5052181;28;20903;-73
2022/08/12 04:48:08;;;;;;;12.32;4.07;;;20.00;88.40;;;;;;5052776;28;20241;-76
2022/08/12 04:50:36;;;;;;;11.38;4.13;;;20.00;89.60;;;;;;5050755;28;20108;-75
2022/08/12 04:53:04;;;;;;;8.50;4.18;;;20.10;88.80;;;;;;5053173;28;20033;-76
2022/08/12 04:55:32;;;;;;;5.30;4.03;;;20.10;88.90;;;;;;5062354;28;20112;-76
2022/08/12 04:58:00;;;;;;;6.50;4.07;;;20.10;89.10;;;;;;5053390;28;20025;-76
2022/08/12 05:00:26;;;;;;;8.95;4.28;;;20.20;88.80;;;;;;5050424;28;20047;-77
2022/08/12 05:02:54;;;;;;;8.70;4.60;;;20.30;87.90;;;;;;5052347;28;20040;-75
2022/08/12 05:05:22;;;;;;;15.07;5.18;;;20.30;87.50;;;;;;5052938;28;20150;-76
2022/08/12 05:07:49;;;;;;;7.78;3.70;;;20.40;87.80;;;;;;5052628;28;20461;-73
2022/08/12 05:10:20;;;;;;;10.10;4.28;;;20.40;87.70;;;;;;5049975;28;20711;-77
2022/08/12 05:12:55;;;;;;;11.27;4.03;;;20.50;87.80;;;;;;5050786;28;20067;-77
2022/08/12 05:15:23;;;;;;;12.05;4.80;;;20.50;87.50;;;;;;5051794;28;20095;-76
2022/08/12 05:17:48;;;;;;;6.43;4.22;;;20.60;87.10;;;;;;5052512;28;20036;-76
2022/08/12 05:20:18;;;;;;;11.02;4.53;;;20.70;86.90;;;;;;5052863;28;20028;-77
2022/08/12 05:22:46;;;;;;;10.65;4.65;;;20.80;86.70;;;;;;5050804;28;20108;-75
2022/08/12 05:25:14;;;;;;;9.20;4.93;;;20.90;85.80;;;;;;5050915;28;20025;-74
2022/08/12 05:27:40;;;;;;;8.40;5.05;;;20.90;85.90;;;;;;5050067;28;20108;-75
2022/08/12 05:30:07;;;;;;;7.43;4.63;;;20.90;85.40;;;;;;5050938;28;20172;-75
2022/08/12 05:32:33;;;;;;;10.10;4.78;;;21.10;84.60;;;;;;5050983;28;20043;-76
2022/08/12 05:35:05;;;;;;;12.77;6.30;;;21.20;82.90;;;;;;5052890;28;20013;-75
2022/08/12 05:37:35;;;;;;;10.98;6.20;;;21.20;82.50;;;;;;5050338;28;20024;-77
2022/08/12 05:40:03;;;;;;;15.85;5.70;;;21.10;82.30;;;;;;5053075;28;20434;-76
2022/08/12 05:42:31;;;;;;;23.42;5.88;;;21.00;82.30;;;;;;5051869;28;20075;-76
2022/08/12 05:44:57;;;;;;;9.30;4.97;;;21.00;82.30;;;;;;5051841;28;20025;-76
2022/08/12 05:47:27;;;;;;;18.48;5.90;;;21.10;82.00;;;;;;5050585;28;20506;-77
2022/08/12 05:49:58;;;;;;;9.48;5.03;;;21.20;80.50;;;;;;5048056;28;20040;-75
2022/08/12 05:52:24;;;;;;;8.45;5.50;;;21.40;80.00;;;;;;5052270;28;20005;-77
2022/08/12 05:54:50;;;;;;;7.65;5.40;;;21.50;78.90;;;;;;5050938;28;20178;-74
2022/08/12 05:57:16;;;;;;;14.30;6.03;;;21.60;78.20;;;;;;5050030;28;20421;-76
2022/08/12 05:59:44;;;;;;;12.05;5.20;;;21.60;77.70;;;;;;5048422;28;20164;-79
2022/08/12 06:02:13;;;;;;;14.52;5.85;;;21.70;77.30;;;;;;5052529;28;20028;-77
2022/08/12 06:04:39;;;;;;;14.10;5.18;;;21.80;76.10;;;;;;5050976;28;20025;-78
2022/08/12 06:07:07;;;;;;;10.38;4.82;;;21.80;76.10;;;;;;5050959;28;20078;-77
2022/08/12 06:09:33;;;;;;;6.78;4.82;;;22.00;74.30;;;;;;5048090;28;20037;-76
2022/08/12 06:11:59;;;;;;;13.77;4.80;;;22.00;73.00;;;;;;5049860;28;20021;-76
2022/08/12 06:14:27;;;;;;;7.57;5.10;;;22.00;72.90;;;;;;5049583;28;20335;-76
2022/08/12 06:16:54;;;;;;;13.73;5.50;;;22.00;72.50;;;;;;5050664;28;20040;-77
2022/08/12 06:19:21;;;;;;;7.28;4.85;;;22.10;72.80;;;;;;5051971;28;20609;-77
2022/08/12 06:21:47;;;;;;;9.27;4.90;;;22.10;72.80;;;;;;5048731;28;20366;-75
2022/08/12 06:24:16;;;;;;;12.07;4.78;;;22.20;72.10;;;;;;5048858;28;20048;-75
2022/08/12 06:26:43;;;;;;;7.82;5.25;;;22.30;71.80;;;;;;5051841;28;20339;-75
2022/08/12 06:29:09;;;;;;;12.38;5.80;;;22.30;70.90;;;;;;5050914;28;20032;-76
2022/08/12 06:31:34;;;;;;;7.72;5.00;;;22.30;70.00;;;;;;5051292;28;20029;-76
2022/08/12 06:34:01;;;;;;;8.35;5.13;;;22.40;70.10;;;;;;5045670;28;20021;-75
2022/08/12 06:36:27;;;;;;;6.93;5.10;;;22.50;69.50;;;;;;5051409;28;20041;-77
2022/08/12 06:38:55;;;;;;;7.80;4.68;;;22.50;69.40;;;;;;5052715;28;20036;-76
2022/08/12 06:44:12;;;;;;;6.03;5.00;;;22.70;68.90;;;;;;5048471;28;20105;-77
2022/08/12 06:46:39;;;;;;;10.52;5.68;;;22.70;68.70;;;;;;5051630;28;20117;-76
2022/08/12 06:49:05;;;;;;;10.82;5.15;;;22.80;68.90;;;;;;5050421;28;20067;-75
2022/08/12 06:51:31;;;;;;;6.28;4.78;;;22.90;68.50;;;;;;5048275;28;20197;-77
2022/08/12 06:54:00;;;;;;;7.30;4.90;;;22.90;68.40;;;;;;5050649;28;20021;-77
2022/08/12 06:56:26;;;;;;;8.80;4.75;;;23.00;68.90;;;;;;5065550;28;20017;-75
2022/08/12 06:58:56;;;;;;;6.78;4.50;;;23.10;68.60;;;;;;5051565;28;20043;-77
2022/08/12 07:01:30;;;;;;;6.05;4.05;;;23.30;68.60;;;;;;5047001;28;20025;-77
2022/08/12 07:03:55;;;;;;;9.13;5.20;;;23.40;67.60;;;;;;5050649;28;20033;-74
2022/08/12 07:06:22;;;;;;;9.20;4.15;;;23.60;67.10;;;;;;5048907;28;20039;-77
2022/08/12 07:08:48;;;;;;;8.52;4.55;;;23.70;66.80;;;;;;5044859;28;20350;-77
2022/08/12 07:11:14;;;;;;;10.95;4.75;;;23.90;66.70;;;;;;5050126;28;20027;-76
2022/08/12 07:13:45;;;;;;;9.75;4.57;;;24.10;65.30;;;;;;5051471;28;20017;-76
2022/08/12 07:16:14;;;;;;;9.63;4.82;;;24.20;64.80;;;;;;5048758;28;20082;-76
2022/08/12 07:18:42;;;;;;;5.97;4.90;;;24.30;64.30;;;;;;5049276;28;20027;-75
2022/08/12 07:21:11;;;;;;;10.60;5.25;;;24.40;64.00;;;;;;5066196;28;20398;-76
2022/08/12 07:23:40;;;;;;;18.20;4.85;;;24.50;63.40;;;;;;5050369;28;20056;-75
2022/08/12 07:26:08;;;;;;;14.02;4.53;;;24.60;63.00;;;;;;5048228;28;20105;-78
2022/08/12 07:28:40;;;;;;;8.77;4.15;;;24.80;62.60;;;;;;5048757;28;20067;-77
2022/08/12 07:31:11;;;;;;;7.05;4.00;;;24.90;62.10;;;;;;5049483;28;20035;-78
2022/08/12 07:33:41;;;;;;;10.82;4.25;;;25.00;61.80;;;;;;5050232;28;20466;-76
2022/08/12 07:36:15;;;;;;;14.23;4.47;;;25.20;61.20;;;;;;5050672;28;20035;-76
2022/08/12 07:38:50;;;;;;;9.65;4.18;;;25.30;60.20;;;;;;5049715;28;20052;-77
2022/08/12 07:41:26;;;;;;;9.48;4.03;;;25.40;60.60;;;;;;5047948;28;20017;-77
2022/08/12 07:43:56;;;;;;;21.25;4.20;;;25.50;59.80;;;;;;5039294;28;20037;-74
2022/08/12 07:46:33;;;;;;;10.10;4.40;;;25.60;59.60;;;;;;5047762;28;20035;-74
2022/08/12 07:49:01;;;;;;;12.35;4.20;;;25.80;59.10;;;;;;5045451;28;20035;-76
2022/08/12 07:51:31;;;;;;;12.15;4.10;;;26.00;58.70;;;;;;5047342;28;20063;-78
2022/08/12 07:53:59;;;;;;;8.27;4.13;;;26.20;58.20;;;;;;5049886;28;20117;-77
2022/08/12 07:56:28;;;;;;;14.52;3.95;;;26.30;57.50;;;;;;5049443;28;20043;-76
2022/08/12 07:58:53;;;;;;;10.50;4.30;;;26.50;56.80;;;;;;5049531;28;20029;-78
2022/08/12 08:01:22;;;;;;;8.52;4.13;;;26.60;57.00;;;;;;5050242;28;20431;-79
2022/08/12 08:06:40;;;;;;;9.80;3.75;;;26.90;55.80;;;;;;5050176;28;20404;-76
2022/08/12 08:09:11;;;;;;;10.95;4.07;;;27.10;54.70;;;;;;5048024;28;20716;-77
2022/08/12 08:14:28;;;;;;;47.28;19.17;;;27.50;54.60;;;;;;5052014;28;20036;-73
2022/08/12 08:16:58;;;;;;;40.05;13.48;;;27.70;53.80;;;;;;5053280;28;20056;-74
2022/08/12 08:19:25;;;;;;;12.32;6.80;;;27.90;53.60;;;;;;5050049;28;20025;-73
2022/08/12 08:21:53;;;;;;;8.50;4.00;;;28.10;52.90;;;;;;5050130;28;20032;-74
2022/08/12 08:24:23;;;;;;;19.63;4.20;;;28.30;53.00;;;;;;5054243;28;20410;-74
2022/08/12 08:26:53;;;;;;;5.93;4.10;;;28.50;51.70;;;;;;5051717;28;20422;-69
2022/08/12 08:29:23;;;;;;;4.93;3.60;;;28.60;50.80;;;;;;5051892;28;20032;-68
2022/08/12 08:31:57;;;;;;;5.03;3.88;;;28.80;50.50;;;;;;5054215;28;20021;-74
2022/08/12 08:34:25;;;;;;;7.13;3.85;;;29.00;49.30;;;;;;5051973;28;20335;-73
2022/08/12 08:36:51;;;;;;;9.40;4.05;;;29.20;48.60;;;;;;5053321;28;20025;-74
2022/08/12 08:39:19;;;;;;;4.78;4.18;;;29.50;48.60;;;;;;5050880;28;20036;-74
2022/08/12 08:44:38;;;;;;;8.32;4.78;;;38.00;36.50;;;;;;5052854;28;20036;-73
2022/08/12 08:47:07;;;;;;;;;;;42.40;30.70;;;;;;5051615;28;20043;-75
2022/08/12 08:49:37;;;;;;;30.15;14.60;;;44.90;28.90;;;;;;5068325;28;19980;-75
2022/08/12 08:52:06;;;;;;;7.03;6.45;;;46.20;26.90;;;;;;5051176;28;20119;-73
2022/08/12 08:54:32;;;;;;;10.65;8.68;;;47.50;25.70;;;;;;5053420;28;20082;-73
2022/08/12 08:57:00;;;;;;;10.02;9.18;;;48.50;24.90;;;;;;5049985;28;20077;-74
2022/08/12 08:59:26;;;;;;;10.63;9.85;;;49.00;23.60;;;;;;5052058;28;20029;-73
2022/08/12 09:01:53;;;;;;;11.68;10.70;;;49.50;22.80;;;;;;5051113;28;20044;-75
2022/08/12 09:04:22;;;;;;;11.82;10.82;;;49.30;22.10;;;;;;5050973;28;20090;-73
2022/08/12 09:06:49;;;;;;;12.82;11.75;;;49.40;22.00;;;;;;5052902;28;20464;-74
2022/08/12 09:09:16;;;;;;;12.43;11.35;;;49.60;21.50;;;;;;5051473;28;20025;-74
2022/08/12 09:14:29;;;;;;;11.07;10.25;;;48.50;21.70;;;;;;5052072;28;20088;-73
2022/08/12 09:16:57;;;;;;;11.07;10.13;;;48.50;21.50;;;;;;5052297;28;20079;-74
2022/08/12 09:19:22;;;;;;;11.68;10.80;;;48.80;21.90;;;;;;5049598;28;20597;-74
2022/08/12 09:21:51;;;;;;;12.30;11.38;;;48.90;21.30;;;;;;5049401;28;20067;-73
2022/08/12 09:24:19;;;;;;;12.55;11.70;;;48.90;21.20;;;;;;5050844;28;20648;-75
2022/08/12 09:26:46;;;;;;;54.28;33.03;;;48.60;21.00;;;;;;5050667;28;20143;-75
2022/08/12 09:29:14;;;;;;;90.18;58.00;;;48.70;21.20;;;;;;5049461;28;20123;-74
2022/08/12 09:31:40;;;;;;;13.10;11.73;;;48.70;21.10;;;;;;5049152;28;20049;-73
2022/08/12 09:34:08;;;;;;;13.57;12.85;;;49.00;21.10;;;;;;5050137;28;20082;-71
2022/08/12 09:36:37;;;;;;;13.00;12.23;;;49.30;20.80;;;;;;5051808;28;20021;-69
2022/08/12 09:39:06;;;;;;;15.27;14.38;;;49.70;20.80;;;;;;5051568;28;20021;-75
2022/08/12 09:41:43;;;;;;;16.25;14.77;;;50.20;20.60;;;;;;5049905;28;20040;-74
2022/08/12 09:46:57;;;;;;;15.30;14.15;;;49.70;20.40;;;;;;5027274;28;20053;-74
2022/08/12 09:49:23;;;;;;;15.20;13.77;;;49.10;20.20;;;;;;5062357;28;20032;-74
2022/08/12 09:51:53;;;;;;;15.63;14.20;;;49.00;20.50;;;;;;5049971;28;20025;-74
2022/08/12 09:54:20;;;;;;;18.73;17.38;;;49.50;20.60;;;;;;5050299;28;20621;-73
2022/08/12 09:56:46;;;;;;;17.25;15.90;;;49.90;20.10;;;;;;5051367;28;20036;-73
2022/08/12 09:59:11;;;;;;;18.20;17.10;;;49.70;20.00;;;;;;5050675;28;20033;-73
2022/08/12 10:01:38;;;;;;;16.95;15.63;;;49.50;19.80;;;;;;5050191;28;20025;-74
2022/08/12 10:04:10;;;;;;;19.98;18.52;;;49.60;21.00;;;;;;5050834;28;20017;-75
2022/08/12 10:06:36;;;;;;;19.48;18.23;;;50.20;19.60;;;;;;5057203;28;20465;-74
2022/08/12 10:09:09;;;;;;;19.30;18.27;;;50.30;19.50;;;;;;5047393;28;20037;-72
2022/08/12 10:14:25;;;;;;;18.58;17.08;;;50.20;19.50;;;;;;5050818;28;20112;-73
2022/08/12 10:16:50;;;;;;;17.55;15.85;;;50.10;19.50;;;;;;5048606;28;20021;-73
2022/08/12 10:19:20;;;;;;;15.48;14.30;;;49.50;19.60;;;;;;5049975;28;20051;-74
2022/08/12 10:21:48;;;;;;;16.98;15.70;;;49.40;19.80;;;;;;5051111;28;20136;-73
2022/08/12 10:24:21;;;;;;;14.85;13.80;;;48.60;20.10;;;;;;5049036;28;20072;-74
2022/08/12 10:29:45;;;;;;;13.50;12.73;;;48.20;20.20;;;;;;5047141;28;20082;-74
2022/08/12 10:32:15;;;;;;;13.00;11.10;;;48.10;20.10;;;;;;5047979;28;20043;-73
2022/08/12 10:34:42;;;;;;;18.25;10.68;;;47.00;20.40;;;;;;5049689;28;20774;-72
2022/08/12 10:37:07;;;;;;;26.83;20.92;;;47.00;20.90;;;;;;5046777;28;20457;-73
2022/08/12 10:39:38;;;;;;;10.60;9.93;;;46.90;21.10;;;;;;5047867;28;20025;-73
2022/08/12 10:44:59;;;;;;;8.25;7.75;;;46.50;21.00;;;;;;5046813;28;20068;-70
2022/08/12 10:47:28;;;;;;;8.23;7.53;;;46.10;21.30;;;;;;5050839;28;20028;-71
2022/08/12 10:49:58;;;;;;;8.68;7.97;;;46.30;21.30;;;;;;5056689;28;20053;-72
2022/08/12 10:52:25;;;;;;;9.57;8.63;;;46.50;20.90;;;;;;5051323;28;20051;-74
2022/08/12 10:54:51;;;;;;;9.25;8.75;;;47.30;21.00;;;;;;5048562;28;20025;-73
2022/08/12 10:57:18;;;;;;;10.30;9.57;;;47.90;20.20;;;;;;5047824;28;20028;-74
2022/08/12 10:59:44;;;;;;;10.18;9.50;;;48.10;20.00;;;;;;5049701;28;20136;-75
2022/08/12 11:02:13;;;;;;;9.88;8.80;;;48.10;20.60;;;;;;5053190;28;20040;-74
2022/08/12 11:04:40;;;;;;;8.98;8.38;;;47.10;20.30;;;;;;5048328;28;20079;-74
2022/08/12 11:07:07;;;;;;;8.93;7.28;;;46.60;20.80;;;;;;5032298;28;20029;-73
2022/08/12 11:09:33;;;;;;;7.55;6.97;;;46.80;21.20;;;;;;5047514;28;20028;-73
2022/08/12 11:12:05;;;;;;;7.85;7.22;;;46.60;21.50;;;;;;5048848;28;20021;-74
2022/08/12 11:14:37;;;;;;;8.20;7.55;;;46.80;22.00;;;;;;5053294;28;20104;-72
2022/08/12 11:17:06;;;;;;;9.63;8.68;;;46.70;21.20;;;;;;5046265;28;20134;-75
2022/08/12 11:19:35;;;;;;;43.65;25.58;;;46.50;21.00;;;;;;5048802;28;20029;-72
2022/08/12 11:22:02;;;;;;;9.52;6.30;;;46.20;21.00;;;;;;5055569;28;20024;-75
2022/08/12 11:24:31;;;;;;;9.18;5.90;;;46.00;21.40;;;;;;5046339;28;20087;-74
2022/08/12 11:27:00;;;;;;;10.15;5.72;;;44.80;21.60;;;;;;5049386;28;20040;-72
2022/08/12 11:29:28;;;;;;;6.30;5.57;;;44.00;22.40;;;;;;5048190;28;20041;-75
2022/08/12 11:31:53;;;;;;;5.95;5.45;;;44.50;22.50;;;;;;5049596;28;20024;-75
2022/08/12 11:34:19;;;;;;;5.75;5.40;;;44.60;22.20;;;;;;5050024;28;20039;-75
2022/08/12 11:36:54;;;;;;;5.78;5.25;;;45.00;22.30;;;;;;5048902;28;20028;-74
2022/08/12 11:39:20;;;;;;;5.72;5.32;;;44.60;22.70;;;;;;5046530;28;20032;-72
2022/08/12 11:41:48;;;;;;;7.32;5.13;;;44.40;22.80;;;;;;5049825;28;20021;-75
2022/08/12 11:44:15;;;;;;;4.40;4.20;;;44.20;22.50;;;;;;5049068;28;20037;-73
2022/08/12 11:46:41;;;;;;;5.28;4.78;;;43.40;22.50;;;;;;5047112;28;20032;-75
2022/08/12 11:49:07;;;;;;;4.88;4.47;;;43.20;23.30;;;;;;5048736;28;20051;-73
2022/08/12 11:51:34;;;;;;;5.85;5.45;;;43.40;23.00;;;;;;5049502;28;20353;-73
2022/08/12 11:54:00;;;;;;;4.32;4.03;;;43.40;22.90;;;;;;5047770;28;20107;-74
2022/08/12 11:56:26;;;;;;;4.80;4.40;;;43.40;23.00;;;;;;5049321;28;20056;-74
2022/08/12 11:58:52;;;;;;;6.07;5.15;;;43.30;22.90;;;;;;5047410;28;20068;-74
2022/08/12 12:01:18;;;;;;;4.90;4.50;;;43.40;23.70;;;;;;5048616;28;20470;-75
2022/08/12 12:03:48;;;;;;;4.78;4.40;;;43.20;23.20;;;;;;5048383;28;20021;-75
2022/08/12 12:06:16;;;;;;;5.68;3.78;;;43.20;23.50;;;;;;5049162;28;20071;-69
2022/08/12 12:08:43;;;;;;;5.80;3.78;;;43.20;23.20;;;;;;5045352;28;20021;-74
2022/08/12 12:11:09;;;;;;;10.15;4.13;;;43.40;23.10;;;;;;5050256;28;20391;-72
2022/08/12 12:13:35;;;;;;;6.40;3.83;;;43.10;23.00;;;;;;5049394;28;20021;-76
2022/08/12 12:16:03;;;;;;;4.25;3.95;;;42.60;23.30;;;;;;5048607;28;20126;-75
2022/08/12 12:18:30;;;;;;;4.63;3.65;;;42.60;23.20;;;;;;5047884;28;20029;-74
2022/08/12 12:21:01;;;;;;;6.65;3.92;;;42.70;23.80;;;;;;5048742;28;20027;-75
2022/08/12 12:23:28;;;;;;;4.20;3.80;;;42.60;23.40;;;;;;5049828;28;20029;-75
2022/08/12 12:25:54;;;;;;;3.53;3.33;;;41.90;24.10;;;;;;5015154;28;20306;-76
2022/08/12 12:28:20;;;;;;;4.15;3.90;;;41.60;23.90;;;;;;5028882;28;20024;-75
2022/08/12 12:30:46;;;;;;;4.38;3.88;;;41.10;24.30;;;;;;5026889;28;20022;-75
2022/08/12 12:33:12;;;;;;;4.05;3.75;;;41.10;24.70;;;;;;5025449;28;20489;-76
2022/08/12 12:35:39;;;;;;;4.43;4.05;;;41.40;24.30;;;;;;5027730;28;20022;-76
2022/08/12 12:38:10;;;;;;;6.22;3.50;;;41.40;24.20;;;;;;5029336;28;20035;-73
2022/08/12 12:40:38;;;;;;;6.83;3.90;;;41.50;24.20;;;;;;5033183;28;20034;-75
2022/08/12 12:43:04;;;;;;;6.43;3.50;;;41.30;24.10;;;;;;5032889;28;20264;-76
2022/08/12 12:45:33;;;;;;;3.28;3.08;;;41.40;24.20;;;;;;5035456;28;20025;-73
2022/08/12 12:48:06;;;;;;;8.00;3.63;;;41.20;23.50;;;;;;5034187;28;20053;-76
2022/08/12 12:50:35;;;;;;;4.80;3.38;;;40.70;23.50;;;;;;5036181;28;20083;-78
2022/08/12 12:53:00;;;;;;;7.65;3.40;;;40.50;24.30;;;;;;5030320;28;20067;-75
2022/08/12 12:55:27;;;;;;;3.70;3.50;;;40.20;24.50;;;;;;5027202;28;20021;-74
2022/08/12 12:57:53;;;;;;;3.67;3.47;;;40.30;24.80;;;;;;5031934;28;20052;-74
2022/08/12 13:00:20;;;;;;;3.90;3.38;;;40.10;24.60;;;;;;5039014;28;20044;-75
2022/08/12 13:02:51;;;;;;;3.25;2.97;;;40.10;24.70;;;;;;5039492;28;20085;-76
2022/08/12 13:05:38;;;;;;;3.50;3.20;;;40.10;24.50;;;;;;5044226;28;20021;-75
2022/08/12 13:08:25;;;;;;;9.55;3.45;;;40.20;24.70;;;;;;5038185;28;20048;-73
2022/08/12 13:10:54;;;;;;;4.32;3.55;;;40.20;24.60;;;;;;5036102;28;20026;-73
2022/08/12 13:13:21;;;;;;;4.15;3.08;;;40.50;24.60;;;;;;5036555;28;20108;-76
2022/08/12 13:15:48;;;;;;;4.03;3.63;;;40.50;24.40;;;;;;5027341;28;20044;-76
2022/08/12 13:18:16;;;;;;;4.45;3.45;;;40.80;24.50;;;;;;5028477;28;20032;-76
2022/08/12 13:20:44;;;;;;;3.33;3.15;;;40.90;24.30;;;;;;5029438;28;20025;-75
2022/08/12 13:23:11;;;;;;;4.43;3.22;;;41.00;24.10;;;;;;5028503;28;20037;-74
2022/08/12 13:25:40;;;;;;;3.63;3.33;;;41.20;23.90;;;;;;5025953;28;20423;-76
2022/08/12 13:28:07;;;;;;;4.60;4.30;;;41.60;24.10;;;;;;5027295;28;20044;-74
2022/08/12 13:30:37;;;;;;;4.30;4.00;;;41.30;23.70;;;;;;5028345;28;20065;-75
2022/08/12 13:33:04;;;;;;;5.43;3.20;;;41.10;24.40;;;;;;5034797;28;20028;-76
2022/08/12 13:35:38;;;;;;;4.38;3.58;;;41.60;24.00;;;;;;5032853;28;20387;-73
2022/08/12 13:38:08;;;;;;;3.40;3.10;;;42.00;23.50;;;;;;5031107;28;20017;-75
2022/08/12 13:40:33;;;;;;;4.13;3.67;;;41.70;23.90;;;;;;5032287;28;20032;-76
2022/08/12 13:43:00;;;;;;;3.78;3.22;;;41.70;23.90;;;;;;5031476;28;20029;-76
2022/08/12 13:45:31;;;;;;;5.40;3.72;;;41.40;24.00;;;;;;5028499;28;20096;-73
2022/08/12 13:47:57;;;;;;;3.20;3.00;;;41.10;24.60;;;;;;5029732;28;20112;-75
2022/08/12 13:50:31;;;;;;;3.80;3.60;;;40.80;24.90;;;;;;5030195;28;20017;-75
2022/08/12 13:52:59;;;;;;;4.00;3.35;;;41.00;24.30;;;;;;5038567;28;20048;-76
2022/08/12 13:55:25;;;;;;;3.20;3.10;;;41.20;24.20;;;;;;5051097;28;20032;-76
2022/08/12 13:57:54;;;;;;;3.90;3.42;;;41.40;24.40;;;;;;5034574;28;20027;-73
2022/08/12 14:00:24;;;;;;;3.75;3.45;;;42.00;23.80;;;;;;5031512;28;20025;-76
2022/08/12 14:02:53;;;;;;;5.32;3.33;;;41.80;23.30;;;;;;5031193;28;20510;-74
2022/08/12 14:05:21;;;;;;;4.28;3.90;;;41.60;23.50;;;;;;5047218;28;20063;-76
2022/08/12 14:07:55;;;;;;;3.65;3.35;;;41.50;23.60;;;;;;5027904;28;20021;-76
2022/08/12 14:10:35;;;;;;;5.22;3.33;;;41.60;23.80;;;;;;5031074;28;20030;-72
2022/08/12 14:13:07;;;;;;;3.70;3.13;;;41.80;23.60;;;;;;5037195;28;20016;-73
2022/08/12 14:15:35;;;;;;;3.55;3.35;;;41.70;23.70;;;;;;5047548;28;20402;-75
2022/08/12 14:18:27;;;;;;;4.28;3.88;;;41.50;23.90;;;;;;5027360;28;20030;-73
2022/08/12 14:21:00;;;;;;;3.58;3.38;;;41.60;24.10;;;;;;5027264;28;20036;-76
2022/08/12 14:23:32;;;;;;;5.05;3.75;;;41.90;23.50;;;;;;5030464;28;20038;-73
2022/08/12 14:25:59;;;;;;;5.95;3.80;;;42.00;23.50;;;;;;5026662;28;20025;-74
2022/08/12 14:28:31;;;;;;;4.03;3.72;;;42.10;23.70;;;;;;5031118;28;20029;-74
2022/08/12 14:31:02;;;;;;;4.15;3.75;;;42.10;23.80;;;;;;5032791;28;20477;-76
2022/08/12 14:33:36;;;;;;;3.88;3.67;;;42.00;23.40;;;;;;5027936;28;20040;-76
2022/08/12 14:36:04;;;;;;;5.28;3.30;;;41.30;23.70;;;;;;5034773;28;20029;-74
2022/08/12 14:38:36;;;;;;;4.88;3.67;;;41.40;24.10;;;;;;5025937;28;20470;-76
2022/08/12 14:41:03;;;;;;;3.80;3.33;;;41.10;24.00;;;;;;5046231;28;20089;-74